sensor_id;sensor_type;location;lat;lon;timestamp;P1;durP1;ratioP1;P2;durP2;ratioP2
32501;SDS011;18952;52.516;13.460;2023-05-23T00:00:00;10.65;;;4.32;;
32501;SDS011;18952;52.516;13.460;2023-05-23T00:02:26;6.82;;;3.97;;
32501;SDS011;18952;52.516;13.460;2023-05-23T00:04:53;11.43;;;4.68;;
32501;SDS011;18952;52.516;13.460;2023-05-23T00:07:20;9.88;;;4.78;;
32501;SDS011;18952;52.516;13.460;2023-05-23T00:09:47;6.40;;;4.80;;
32501;SDS011;18952;52.516;13.460;2023-05-23T00:12:15;9.52;;;4.63;;
32501;SDS011;18952;52.516;13.460;2023-05-23T00:14:42;9.43;;;4.78;;
32501;SDS011;18952;52.516;13.460;2023-05-23T00:17:09;7.70;;;4.25;;
32501;SDS011;18952;52.516;13.460;2023-05-23T00:19:37;9.52;;;4.47;;
32501;SDS011;18952;52.516;13.460;2023-05-23T00:22:04;8.70;;;4.60;;
32501;SDS011;18952;52.516;13.460;2023-05-23T00:24:30;8.73;;;4.63;;
32501;SDS011;18952;52.516;13.460;2023-05-23T00:26:57;12.48;;;4.78;;
32501;SDS011;18952;52.516;13.460;2023-05-23T00:29:24;7.30;;;4.90;;
32501;SDS011;18952;52.516;13.460;2023-05-23T00:31:50;9.63;;;4.45;;
32501;SDS011;18952;52.516;13.460;2023-05-23T00:34:17;9.18;;;4.55;;
32501;SDS011;18952;52.516;13.460;2023-05-23T00:36:44;8.75;;;4.50;;
32501;SDS011;18952;52.516;13.460;2023-05-23T00:39:12;13.77;;;4.60;;
32501;SDS011;18952;52.516;13.460;2023-05-23T00:41:40;7.97;;;5.00;;
32501;SDS011;18952;52.516;13.460;2023-05-23T00:44:07;9.32;;;4.50;;
32501;SDS011;18952;52.516;13.460;2023-05-23T00:46:35;18.05;;;5.25;;
32501;SDS011;18952;52.516;13.460;2023-05-23T00:49:03;8.10;;;4.25;;
32501;SDS011;18952;52.516;13.460;2023-05-23T00:51:32;7.15;;;4.70;;
32501;SDS011;18952;52.516;13.460;2023-05-23T00:53:59;9.45;;;4.90;;
32501;SDS011;18952;52.516;13.460;2023-05-23T00:56:27;9.35;;;4.15;;
32501;SDS011;18952;52.516;13.460;2023-05-23T00:58:55;6.93;;;4.78;;
32501;SDS011;18952;52.516;13.460;2023-05-23T01:01:22;9.15;;;5.05;;
32501;SDS011;18952;52.516;13.460;2023-05-23T01:03:49;8.02;;;4.95;;
32501;SDS011;18952;52.516;13.460;2023-05-23T01:06:16;15.55;;;5.28;;
32501;SDS011;18952;52.516;13.460;2023-05-23T01:08:42;8.82;;;4.88;;
32501;SDS011;18952;52.516;13.460;2023-05-23T01:11:22;10.43;;;4.70;;
32501;SDS011;18952;52.516;13.460;2023-05-23T01:13:58;7.70;;;4.68;;
32501;SDS011;18952;52.516;13.460;2023-05-23T01:25:06;9.43;;;4.72;;
32501;SDS011;18952;52.516;13.460;2023-05-23T01:30:18;5.80;;;4.53;;
32501;SDS011;18952;52.516;13.460;2023-05-23T01:32:46;19.98;;;4.88;;
32501;SDS011;18952;52.516;13.460;2023-05-23T01:35:34;6.80;;;4.50;;
32501;SDS011;18952;52.516;13.460;2023-05-23T01:38:04;6.57;;;4.47;;
32501;SDS011;18952;52.516;13.460;2023-05-23T01:40:31;7.55;;;4.68;;
32501;SDS011;18952;52.516;13.460;2023-05-23T01:42:58;11.23;;;5.28;;
32501;SDS011;18952;52.516;13.460;2023-05-23T01:45:27;15.10;;;4.80;;
32501;SDS011;18952;52.516;13.460;2023-05-23T01:47:55;17.38;;;5.15;;
32501;SDS011;18952;52.516;13.460;2023-05-23T01:50:23;11.05;;;5.18;;
32501;SDS011;18952;52.516;13.460;2023-05-23T01:52:50;13.18;;;5.35;;
32501;SDS011;18952;52.516;13.460;2023-05-23T01:55:18;11.77;;;5.10;;
32501;SDS011;18952;52.516;13.460;2023-05-23T01:57:46;7.15;;;4.97;;
32501;SDS011;18952;52.516;13.460;2023-05-23T02:00:17;7.60;;;5.35;;
32501;SDS011;18952;52.516;13.460;2023-05-23T02:02:44;11.73;;;5.28;;
32501;SDS011;18952;52.516;13.460;2023-05-23T02:05:13;8.27;;;5.55;;
32501;SDS011;18952;52.516;13.460;2023-05-23T02:07:39;7.82;;;5.18;;
32501;SDS011;18952;52.516;13.460;2023-05-23T02:10:07;11.50;;;5.55;;
32501;SDS011;18952;52.516;13.460;2023-05-23T02:12:35;13.27;;;5.60;;
32501;SDS011;18952;52.516;13.460;2023-05-23T02:15:02;12.85;;;5.07;;
32501;SDS011;18952;52.516;13.460;2023-05-23T02:17:33;13.82;;;5.07;;
32501;SDS011;18952;52.516;13.460;2023-05-23T02:20:01;11.52;;;5.32;;
32501;SDS011;18952;52.516;13.460;2023-05-23T02:22:29;17.38;;;5.13;;
32501;SDS011;18952;52.516;13.460;2023-05-23T02:24:56;9.90;;;5.60;;
32501;SDS011;18952;52.516;13.460;2023-05-23T02:27:30;8.43;;;5.10;;
32501;SDS011;18952;52.516;13.460;2023-05-23T02:29:59;11.00;;;5.25;;
32501;SDS011;18952;52.516;13.460;2023-05-23T02:32:26;11.25;;;5.75;;
32501;SDS011;18952;52.516;13.460;2023-05-23T02:34:53;9.48;;;5.47;;
32501;SDS011;18952;52.516;13.460;2023-05-23T02:37:22;13.70;;;5.38;;
32501;SDS011;18952;52.516;13.460;2023-05-23T02:39:49;10.45;;;5.55;;
32501;SDS011;18952;52.516;13.460;2023-05-23T02:42:16;11.60;;;5.22;;
32501;SDS011;18952;52.516;13.460;2023-05-23T02:44:42;11.93;;;5.22;;
32501;SDS011;18952;52.516;13.460;2023-05-23T02:47:09;10.30;;;5.20;;
32501;SDS011;18952;52.516;13.460;2023-05-23T02:49:36;10.45;;;5.78;;
32501;SDS011;18952;52.516;13.460;2023-05-23T02:52:03;11.13;;;5.78;;
32501;SDS011;18952;52.516;13.460;2023-05-23T02:54:30;7.55;;;5.82;;
32501;SDS011;18952;52.516;13.460;2023-05-23T02:56:58;10.38;;;5.60;;
32501;SDS011;18952;52.516;13.460;2023-05-23T02:59:24;8.95;;;5.88;;
32501;SDS011;18952;52.516;13.460;2023-05-23T03:01:51;7.50;;;5.57;;
32501;SDS011;18952;52.516;13.460;2023-05-23T03:04:21;11.02;;;5.20;;
32501;SDS011;18952;52.516;13.460;2023-05-23T03:06:49;8.93;;;5.38;;
32501;SDS011;18952;52.516;13.460;2023-05-23T03:09:18;14.63;;;5.30;;
32501;SDS011;18952;52.516;13.460;2023-05-23T03:11:47;11.65;;;5.30;;
32501;SDS011;18952;52.516;13.460;2023-05-23T03:14:14;11.93;;;5.85;;
32501;SDS011;18952;52.516;13.460;2023-05-23T03:16:41;8.65;;;5.78;;
32501;SDS011;18952;52.516;13.460;2023-05-23T03:19:08;9.38;;;5.82;;
32501;SDS011;18952;52.516;13.460;2023-05-23T03:21:35;10.15;;;6.15;;
32501;SDS011;18952;52.516;13.460;2023-05-23T03:24:02;10.63;;;6.43;;
32501;SDS011;18952;52.516;13.460;2023-05-23T03:26:29;9.20;;;6.05;;
32501;SDS011;18952;52.516;13.460;2023-05-23T03:28:56;10.00;;;5.63;;
32501;SDS011;18952;52.516;13.460;2023-05-23T03:31:23;10.35;;;5.85;;
32501;SDS011;18952;52.516;13.460;2023-05-23T03:33:49;9.32;;;6.20;;
32501;SDS011;18952;52.516;13.460;2023-05-23T03:36:16;33.42;;;7.38;;
32501;SDS011;18952;52.516;13.460;2023-05-23T03:38:45;11.13;;;6.07;;
32501;SDS011;18952;52.516;13.460;2023-05-23T03:41:12;12.70;;;6.40;;
32501;SDS011;18952;52.516;13.460;2023-05-23T03:43:39;11.30;;;5.68;;
32501;SDS011;18952;52.516;13.460;2023-05-23T03:46:06;13.02;;;5.78;;
32501;SDS011;18952;52.516;13.460;2023-05-23T03:48:33;9.38;;;5.75;;
32501;SDS011;18952;52.516;13.460;2023-05-23T03:50:59;11.65;;;6.10;;
32501;SDS011;18952;52.516;13.460;2023-05-23T03:53:26;12.52;;;6.07;;
32501;SDS011;18952;52.516;13.460;2023-05-23T03:55:53;18.85;;;6.20;;
32501;SDS011;18952;52.516;13.460;2023-05-23T03:58:20;7.35;;;5.57;;
32501;SDS011;18952;52.516;13.460;2023-05-23T04:00:47;9.23;;;5.75;;
32501;SDS011;18952;52.516;13.460;2023-05-23T04:03:14;9.30;;;6.05;;
32501;SDS011;18952;52.516;13.460;2023-05-23T04:05:43;13.05;;;5.88;;
32501;SDS011;18952;52.516;13.460;2023-05-23T04:08:10;11.27;;;5.85;;
32501;SDS011;18952;52.516;13.460;2023-05-23T04:10:38;10.50;;;5.68;;
32501;SDS011;18952;52.516;13.460;2023-05-23T04:13:06;19.65;;;6.10;;
32501;SDS011;18952;52.516;13.460;2023-05-23T04:15:34;10.73;;;5.97;;
32501;SDS011;18952;52.516;13.460;2023-05-23T04:18:02;12.43;;;5.70;;
32501;SDS011;18952;52.516;13.460;2023-05-23T04:20:32;14.60;;;6.00;;
32501;SDS011;18952;52.516;13.460;2023-05-23T04:22:59;12.55;;;6.20;;
32501;SDS011;18952;52.516;13.460;2023-05-23T04:25:27;13.48;;;6.25;;
32501;SDS011;18952;52.516;13.460;2023-05-23T04:28:04;12.95;;;6.68;;
32501;SDS011;18952;52.516;13.460;2023-05-23T04:30:31;12.38;;;6.88;;
32501;SDS011;18952;52.516;13.460;2023-05-23T04:33:02;13.95;;;7.18;;
32501;SDS011;18952;52.516;13.460;2023-05-23T04:35:30;13.05;;;7.43;;
32501;SDS011;18952;52.516;13.460;2023-05-23T04:37:57;12.15;;;6.10;;
32501;SDS011;18952;52.516;13.460;2023-05-23T04:40:24;16.33;;;6.60;;
32501;SDS011;18952;52.516;13.460;2023-05-23T04:42:50;11.60;;;6.50;;
32501;SDS011;18952;52.516;13.460;2023-05-23T04:45:17;10.55;;;6.47;;
32501;SDS011;18952;52.516;13.460;2023-05-23T04:47:44;12.13;;;6.38;;
32501;SDS011;18952;52.516;13.460;2023-05-23T04:50:11;10.75;;;6.07;;
32501;SDS011;18952;52.516;13.460;2023-05-23T04:52:38;13.50;;;6.40;;
32501;SDS011;18952;52.516;13.460;2023-05-23T04:55:05;12.55;;;6.47;;
32501;SDS011;18952;52.516;13.460;2023-05-23T04:57:33;12.82;;;6.35;;
32501;SDS011;18952;52.516;13.460;2023-05-23T05:00:00;14.70;;;6.85;;
32501;SDS011;18952;52.516;13.460;2023-05-23T05:02:27;10.48;;;6.63;;
32501;SDS011;18952;52.516;13.460;2023-05-23T05:04:54;11.48;;;6.95;;
32501;SDS011;18952;52.516;13.460;2023-05-23T05:07:22;12.25;;;7.07;;
32501;SDS011;18952;52.516;13.460;2023-05-23T05:09:52;13.32;;;7.32;;
32501;SDS011;18952;52.516;13.460;2023-05-23T05:12:26;11.00;;;5.82;;
32501;SDS011;18952;52.516;13.460;2023-05-23T05:14:53;9.18;;;6.78;;
32501;SDS011;18952;52.516;13.460;2023-05-23T05:17:24;16.73;;;6.97;;
32501;SDS011;18952;52.516;13.460;2023-05-23T05:19:55;13.52;;;7.00;;
32501;SDS011;18952;52.516;13.460;2023-05-23T05:22:23;12.38;;;6.90;;
32501;SDS011;18952;52.516;13.460;2023-05-23T05:25:04;12.65;;;6.68;;
32501;SDS011;18952;52.516;13.460;2023-05-23T05:27:32;13.07;;;6.70;;
32501;SDS011;18952;52.516;13.460;2023-05-23T05:30:01;14.38;;;6.60;;
32501;SDS011;18952;52.516;13.460;2023-05-23T05:32:34;12.70;;;6.80;;
32501;SDS011;18952;52.516;13.460;2023-05-23T05:35:05;12.63;;;6.63;;
32501;SDS011;18952;52.516;13.460;2023-05-23T05:37:32;12.02;;;7.13;;
32501;SDS011;18952;52.516;13.460;2023-05-23T05:39:59;9.90;;;6.63;;
32501;SDS011;18952;52.516;13.460;2023-05-23T05:42:25;43.15;;;8.75;;
32501;SDS011;18952;52.516;13.460;2023-05-23T05:44:52;20.63;;;6.75;;
32501;SDS011;18952;52.516;13.460;2023-05-23T05:47:19;13.50;;;6.90;;
32501;SDS011;18952;52.516;13.460;2023-05-23T05:49:46;13.57;;;6.95;;
32501;SDS011;18952;52.516;13.460;2023-05-23T05:52:14;16.27;;;7.07;;
32501;SDS011;18952;52.516;13.460;2023-05-23T05:54:41;15.68;;;6.72;;
32501;SDS011;18952;52.516;13.460;2023-05-23T05:57:09;11.40;;;7.32;;
32501;SDS011;18952;52.516;13.460;2023-05-23T05:59:36;27.17;;;10.60;;
32501;SDS011;18952;52.516;13.460;2023-05-23T06:02:05;19.42;;;7.10;;
32501;SDS011;18952;52.516;13.460;2023-05-23T06:04:36;12.60;;;6.90;;
32501;SDS011;18952;52.516;13.460;2023-05-23T06:07:05;12.98;;;6.93;;
32501;SDS011;18952;52.516;13.460;2023-05-23T06:09:32;11.63;;;7.05;;
32501;SDS011;18952;52.516;13.460;2023-05-23T06:11:59;20.23;;;7.60;;
32501;SDS011;18952;52.516;13.460;2023-05-23T06:14:26;16.02;;;6.88;;
32501;SDS011;18952;52.516;13.460;2023-05-23T06:16:53;22.63;;;7.57;;
32501;SDS011;18952;52.516;13.460;2023-05-23T06:19:20;18.80;;;7.57;;
32501;SDS011;18952;52.516;13.460;2023-05-23T06:21:47;16.25;;;7.80;;
32501;SDS011;18952;52.516;13.460;2023-05-23T06:24:14;22.50;;;7.85;;
32501;SDS011;18952;52.516;13.460;2023-05-23T06:26:41;14.00;;;8.13;;
32501;SDS011;18952;52.516;13.460;2023-05-23T06:29:09;14.82;;;8.23;;
32501;SDS011;18952;52.516;13.460;2023-05-23T06:31:35;17.25;;;7.88;;
32501;SDS011;18952;52.516;13.460;2023-05-23T06:34:02;19.05;;;8.65;;
32501;SDS011;18952;52.516;13.460;2023-05-23T06:36:29;15.82;;;8.27;;
32501;SDS011;18952;52.516;13.460;2023-05-23T06:38:56;21.02;;;8.48;;
32501;SDS011;18952;52.516;13.460;2023-05-23T06:41:24;31.08;;;9.02;;
32501;SDS011;18952;52.516;13.460;2023-05-23T06:43:51;12.77;;;7.70;;
32501;SDS011;18952;52.516;13.460;2023-05-23T06:46:18;15.88;;;7.72;;
32501;SDS011;18952;52.516;13.460;2023-05-23T06:48:45;14.70;;;7.55;;
32501;SDS011;18952;52.516;13.460;2023-05-23T06:51:12;17.25;;;7.68;;
32501;SDS011;18952;52.516;13.460;2023-05-23T06:53:39;18.20;;;7.90;;
32501;SDS011;18952;52.516;13.460;2023-05-23T06:56:06;28.17;;;8.13;;
32501;SDS011;18952;52.516;13.460;2023-05-23T06:58:32;24.05;;;8.80;;
32501;SDS011;18952;52.516;13.460;2023-05-23T07:00:59;23.77;;;8.13;;
32501;SDS011;18952;52.516;13.460;2023-05-23T07:03:26;21.08;;;8.00;;
32501;SDS011;18952;52.516;13.460;2023-05-23T07:05:53;18.98;;;7.90;;
32501;SDS011;18952;52.516;13.460;2023-05-23T07:08:20;17.60;;;7.03;;
32501;SDS011;18952;52.516;13.460;2023-05-23T07:10:48;26.77;;;8.18;;
32501;SDS011;18952;52.516;13.460;2023-05-23T07:13:14;18.48;;;8.40;;
32501;SDS011;18952;52.516;13.460;2023-05-23T07:15:41;17.77;;;8.20;;
32501;SDS011;18952;52.516;13.460;2023-05-23T07:18:11;17.02;;;8.60;;
32501;SDS011;18952;52.516;13.460;2023-05-23T07:20:39;23.40;;;8.52;;
32501;SDS011;18952;52.516;13.460;2023-05-23T07:23:07;25.23;;;7.75;;
32501;SDS011;18952;52.516;13.460;2023-05-23T07:25:34;16.88;;;7.10;;
32501;SDS011;18952;52.516;13.460;2023-05-23T07:28:02;21.58;;;6.93;;
32501;SDS011;18952;52.516;13.460;2023-05-23T07:30:29;23.15;;;7.80;;
32501;SDS011;18952;52.516;13.460;2023-05-23T07:32:58;19.73;;;7.55;;
32501;SDS011;18952;52.516;13.460;2023-05-23T07:35:25;17.77;;;7.45;;
32501;SDS011;18952;52.516;13.460;2023-05-23T07:37:52;15.32;;;7.50;;
32501;SDS011;18952;52.516;13.460;2023-05-23T07:40:19;19.67;;;7.70;;
32501;SDS011;18952;52.516;13.460;2023-05-23T07:42:48;18.27;;;7.20;;
32501;SDS011;18952;52.516;13.460;2023-05-23T07:45:15;12.70;;;6.93;;
32501;SDS011;18952;52.516;13.460;2023-05-23T07:47:43;13.98;;;7.03;;
32501;SDS011;18952;52.516;13.460;2023-05-23T07:50:10;17.88;;;6.80;;
32501;SDS011;18952;52.516;13.460;2023-05-23T07:52:39;13.07;;;6.88;;
32501;SDS011;18952;52.516;13.460;2023-05-23T07:55:06;17.30;;;7.07;;
32501;SDS011;18952;52.516;13.460;2023-05-23T07:57:33;16.45;;;6.40;;
32501;SDS011;18952;52.516;13.460;2023-05-23T08:00:01;17.25;;;7.55;;
32501;SDS011;18952;52.516;13.460;2023-05-23T08:02:34;12.18;;;6.70;;
32501;SDS011;18952;52.516;13.460;2023-05-23T08:05:02;14.02;;;6.63;;
32501;SDS011;18952;52.516;13.460;2023-05-23T08:07:34;12.77;;;6.30;;
32501;SDS011;18952;52.516;13.460;2023-05-23T08:10:04;19.05;;;6.50;;
32501;SDS011;18952;52.516;13.460;2023-05-23T08:12:34;10.65;;;7.45;;
32501;SDS011;18952;52.516;13.460;2023-05-23T08:15:02;17.25;;;6.65;;
32501;SDS011;18952;52.516;13.460;2023-05-23T08:17:29;12.57;;;6.30;;
32501;SDS011;18952;52.516;13.460;2023-05-23T08:19:56;18.85;;;6.80;;
32501;SDS011;18952;52.516;13.460;2023-05-23T08:22:23;11.07;;;6.65;;
32501;SDS011;18952;52.516;13.460;2023-05-23T08:24:50;14.23;;;6.90;;
32501;SDS011;18952;52.516;13.460;2023-05-23T08:27:16;12.32;;;5.65;;
32501;SDS011;18952;52.516;13.460;2023-05-23T08:29:43;14.10;;;6.53;;
32501;SDS011;18952;52.516;13.460;2023-05-23T08:32:10;13.13;;;6.88;;
32501;SDS011;18952;52.516;13.460;2023-05-23T08:34:37;9.38;;;6.40;;
32501;SDS011;18952;52.516;13.460;2023-05-23T08:37:04;11.35;;;6.70;;
32501;SDS011;18952;52.516;13.460;2023-05-23T08:39:30;11.30;;;6.40;;
32501;SDS011;18952;52.516;13.460;2023-05-23T08:41:59;17.17;;;6.80;;
32501;SDS011;18952;52.516;13.460;2023-05-23T08:44:26;13.65;;;6.22;;
32501;SDS011;18952;52.516;13.460;2023-05-23T08:46:52;11.30;;;6.70;;
32501;SDS011;18952;52.516;13.460;2023-05-23T08:49:19;7.13;;;6.35;;
32501;SDS011;18952;52.516;13.460;2023-05-23T08:51:49;11.90;;;6.40;;
32501;SDS011;18952;52.516;13.460;2023-05-23T08:54:22;13.50;;;6.85;;
32501;SDS011;18952;52.516;13.460;2023-05-23T08:56:50;19.20;;;7.18;;
32501;SDS011;18952;52.516;13.460;2023-05-23T08:59:18;13.68;;;7.43;;
32501;SDS011;18952;52.516;13.460;2023-05-23T09:01:48;15.32;;;7.32;;
32501;SDS011;18952;52.516;13.460;2023-05-23T09:04:18;13.60;;;7.03;;
32501;SDS011;18952;52.516;13.460;2023-05-23T09:06:45;13.90;;;6.50;;
32501;SDS011;18952;52.516;13.460;2023-05-23T09:09:11;17.63;;;7.03;;
32501;SDS011;18952;52.516;13.460;2023-05-23T09:11:38;20.13;;;7.15;;
32501;SDS011;18952;52.516;13.460;2023-05-23T09:14:06;12.45;;;6.72;;
32501;SDS011;18952;52.516;13.460;2023-05-23T09:16:33;9.98;;;6.78;;
32501;SDS011;18952;52.516;13.460;2023-05-23T09:19:08;15.98;;;6.88;;
32501;SDS011;18952;52.516;13.460;2023-05-23T09:21:36;14.35;;;7.38;;
32501;SDS011;18952;52.516;13.460;2023-05-23T09:24:07;8.85;;;6.90;;
32501;SDS011;18952;52.516;13.460;2023-05-23T09:26:34;11.40;;;6.90;;
32501;SDS011;18952;52.516;13.460;2023-05-23T09:29:03;11.57;;;6.97;;
32501;SDS011;18952;52.516;13.460;2023-05-23T09:31:31;16.33;;;7.43;;
32501;SDS011;18952;52.516;13.460;2023-05-23T09:33:58;11.32;;;6.68;;
32501;SDS011;18952;52.516;13.460;2023-05-23T09:36:26;14.35;;;7.78;;
32501;SDS011;18952;52.516;13.460;2023-05-23T09:38:55;12.23;;;7.53;;
32501;SDS011;18952;52.516;13.460;2023-05-23T09:41:22;9.02;;;6.82;;
32501;SDS011;18952;52.516;13.460;2023-05-23T09:43:53;40.13;;;8.38;;
32501;SDS011;18952;52.516;13.460;2023-05-23T09:46:21;17.50;;;7.60;;
32501;SDS011;18952;52.516;13.460;2023-05-23T09:48:59;12.90;;;8.57;;
32501;SDS011;18952;52.516;13.460;2023-05-23T09:51:27;15.35;;;8.13;;
32501;SDS011;18952;52.516;13.460;2023-05-23T09:53:57;12.23;;;8.00;;
32501;SDS011;18952;52.516;13.460;2023-05-23T09:56:26;17.02;;;8.32;;
32501;SDS011;18952;52.516;13.460;2023-05-23T09:58:55;16.48;;;8.05;;
32501;SDS011;18952;52.516;13.460;2023-05-23T10:01:25;11.95;;;7.75;;
32501;SDS011;18952;52.516;13.460;2023-05-23T10:03:54;16.30;;;7.80;;
32501;SDS011;18952;52.516;13.460;2023-05-23T10:09:04;12.13;;;7.50;;
32501;SDS011;18952;52.516;13.460;2023-05-23T10:14:00;9.38;;;7.65;;
32501;SDS011;18952;52.516;13.460;2023-05-23T10:22:09;18.63;;;7.18;;
32501;SDS011;18952;52.516;13.460;2023-05-23T10:24:37;12.07;;;6.72;;
32501;SDS011;18952;52.516;13.460;2023-05-23T10:27:05;14.00;;;6.47;;
32501;SDS011;18952;52.516;13.460;2023-05-23T10:29:32;8.55;;;6.20;;
32501;SDS011;18952;52.516;13.460;2023-05-23T10:32:01;18.35;;;7.10;;
32501;SDS011;18952;52.516;13.460;2023-05-23T10:37:26;15.77;;;8.63;;
32501;SDS011;18952;52.516;13.460;2023-05-23T10:40:06;9.30;;;7.35;;
32501;SDS011;18952;52.516;13.460;2023-05-23T10:46:01;11.55;;;7.97;;
32501;SDS011;18952;52.516;13.460;2023-05-23T10:48:32;13.13;;;8.13;;
32501;SDS011;18952;52.516;13.460;2023-05-23T10:51:10;14.18;;;8.40;;
32501;SDS011;18952;52.516;13.460;2023-05-23T10:53:43;12.02;;;9.48;;
32501;SDS011;18952;52.516;13.460;2023-05-23T10:56:23;11.88;;;8.93;;
32501;SDS011;18952;52.516;13.460;2023-05-23T10:58:53;11.85;;;10.15;;
32501;SDS011;18952;52.516;13.460;2023-05-23T11:01:22;20.08;;;11.90;;
32501;SDS011;18952;52.516;13.460;2023-05-23T11:03:50;26.40;;;11.23;;
32501;SDS011;18952;52.516;13.460;2023-05-23T11:06:37;42.13;;;13.10;;
32501;SDS011;18952;52.516;13.460;2023-05-23T11:09:15;20.35;;;13.95;;
32501;SDS011;18952;52.516;13.460;2023-05-23T11:14:16;16.52;;;13.77;;
32501;SDS011;18952;52.516;13.460;2023-05-23T11:16:44;26.38;;;14.93;;
32501;SDS011;18952;52.516;13.460;2023-05-23T11:27:31;26.30;;;17.17;;
32501;SDS011;18952;52.516;13.460;2023-05-23T11:32:35;27.95;;;18.83;;
32501;SDS011;18952;52.516;13.460;2023-05-23T11:35:03;22.90;;;17.70;;
32501;SDS011;18952;52.516;13.460;2023-05-23T11:37:32;24.38;;;19.35;;
32501;SDS011;18952;52.516;13.460;2023-05-23T11:40:23;27.77;;;19.27;;
32501;SDS011;18952;52.516;13.460;2023-05-23T11:42:56;23.95;;;18.25;;
32501;SDS011;18952;52.516;13.460;2023-05-23T11:45:23;27.45;;;19.58;;
32501;SDS011;18952;52.516;13.460;2023-05-23T11:47:51;25.63;;;21.58;;
32501;SDS011;18952;52.516;13.460;2023-05-23T11:50:18;32.13;;;20.85;;
32501;SDS011;18952;52.516;13.460;2023-05-23T11:52:46;28.48;;;21.02;;
32501;SDS011;18952;52.516;13.460;2023-05-23T11:55:14;28.20;;;20.98;;
32501;SDS011;18952;52.516;13.460;2023-05-23T11:57:42;26.00;;;23.20;;
32501;SDS011;18952;52.516;13.460;2023-05-23T12:00:11;26.17;;;22.50;;
32501;SDS011;18952;52.516;13.460;2023-05-23T12:02:40;25.70;;;21.90;;
32501;SDS011;18952;52.516;13.460;2023-05-23T12:05:09;49.50;;;22.67;;
32501;SDS011;18952;52.516;13.460;2023-05-23T12:07:42;30.00;;;23.98;;
32501;SDS011;18952;52.516;13.460;2023-05-23T12:10:13;34.83;;;23.63;;
32501;SDS011;18952;52.516;13.460;2023-05-23T12:12:44;28.55;;;25.00;;
32501;SDS011;18952;52.516;13.460;2023-05-23T12:15:11;27.13;;;23.27;;
32501;SDS011;18952;52.516;13.460;2023-05-23T12:17:46;28.58;;;24.77;;
32501;SDS011;18952;52.516;13.460;2023-05-23T12:20:13;29.95;;;24.08;;
32501;SDS011;18952;52.516;13.460;2023-05-23T12:22:42;26.90;;;23.42;;
32501;SDS011;18952;52.516;13.460;2023-05-23T12:25:09;37.30;;;23.67;;
32501;SDS011;18952;52.516;13.460;2023-05-23T12:27:36;30.08;;;23.42;;
32501;SDS011;18952;52.516;13.460;2023-05-23T12:30:15;28.65;;;23.45;;
32501;SDS011;18952;52.516;13.460;2023-05-23T12:32:43;30.63;;;23.38;;
32501;SDS011;18952;52.516;13.460;2023-05-23T12:35:11;30.52;;;23.00;;
32501;SDS011;18952;52.516;13.460;2023-05-23T12:37:39;26.65;;;22.95;;
32501;SDS011;18952;52.516;13.460;2023-05-23T12:42:50;26.15;;;23.40;;
32501;SDS011;18952;52.516;13.460;2023-05-23T12:45:21;31.52;;;23.70;;
32501;SDS011;18952;52.516;13.460;2023-05-23T12:47:52;29.75;;;24.52;;
32501;SDS011;18952;52.516;13.460;2023-05-23T12:50:21;26.20;;;22.45;;
32501;SDS011;18952;52.516;13.460;2023-05-23T12:52:48;32.13;;;23.48;;
32501;SDS011;18952;52.516;13.460;2023-05-23T12:55:22;29.42;;;23.67;;
32501;SDS011;18952;52.516;13.460;2023-05-23T12:57:53;26.38;;;22.98;;
32501;SDS011;18952;52.516;13.460;2023-05-23T13:00:22;30.27;;;21.90;;
32501;SDS011;18952;52.516;13.460;2023-05-23T13:02:49;25.02;;;20.48;;
32501;SDS011;18952;52.516;13.460;2023-05-23T13:05:19;30.85;;;22.00;;
32501;SDS011;18952;52.516;13.460;2023-05-23T13:07:48;24.83;;;19.88;;
32501;SDS011;18952;52.516;13.460;2023-05-23T13:10:15;25.67;;;19.55;;
32501;SDS011;18952;52.516;13.460;2023-05-23T13:12:43;23.30;;;19.02;;
32501;SDS011;18952;52.516;13.460;2023-05-23T13:15:10;26.73;;;17.98;;
32501;SDS011;18952;52.516;13.460;2023-05-23T13:17:38;22.10;;;18.23;;
32501;SDS011;18952;52.516;13.460;2023-05-23T13:20:05;22.75;;;19.95;;
32501;SDS011;18952;52.516;13.460;2023-05-23T13:22:34;22.48;;;18.90;;
32501;SDS011;18952;52.516;13.460;2023-05-23T13:25:01;22.48;;;19.98;;
32501;SDS011;18952;52.516;13.460;2023-05-23T13:27:28;22.35;;;20.00;;
32501;SDS011;18952;52.516;13.460;2023-05-23T13:29:54;31.75;;;23.90;;
32501;SDS011;18952;52.516;13.460;2023-05-23T13:32:21;28.70;;;23.73;;
32501;SDS011;18952;52.516;13.460;2023-05-23T13:34:48;26.90;;;23.60;;
32501;SDS011;18952;52.516;13.460;2023-05-23T13:37:15;33.97;;;23.85;;
32501;SDS011;18952;52.516;13.460;2023-05-23T13:39:43;30.63;;;24.13;;
32501;SDS011;18952;52.516;13.460;2023-05-23T13:42:12;34.70;;;24.65;;
32501;SDS011;18952;52.516;13.460;2023-05-23T13:44:38;29.23;;;23.42;;
32501;SDS011;18952;52.516;13.460;2023-05-23T13:47:09;27.92;;;23.60;;
32501;SDS011;18952;52.516;13.460;2023-05-23T13:49:40;33.00;;;24.55;;
32501;SDS011;18952;52.516;13.460;2023-05-23T13:52:08;34.30;;;24.88;;
32501;SDS011;18952;52.516;13.460;2023-05-23T13:54:34;34.42;;;23.10;;
32501;SDS011;18952;52.516;13.460;2023-05-23T13:57:02;33.40;;;23.85;;
32501;SDS011;18952;52.516;13.460;2023-05-23T13:59:28;30.58;;;23.33;;
32501;SDS011;18952;52.516;13.460;2023-05-23T14:01:55;32.42;;;24.65;;
32501;SDS011;18952;52.516;13.460;2023-05-23T14:04:22;32.03;;;23.17;;
32501;SDS011;18952;52.516;13.460;2023-05-23T14:06:49;30.08;;;21.70;;
32501;SDS011;18952;52.516;13.460;2023-05-23T14:09:17;28.70;;;23.27;;
32501;SDS011;18952;52.516;13.460;2023-05-23T14:11:49;27.30;;;23.02;;
32501;SDS011;18952;52.516;13.460;2023-05-23T14:14:16;27.65;;;24.67;;
32501;SDS011;18952;52.516;13.460;2023-05-23T14:16:44;35.17;;;25.65;;
32501;SDS011;18952;52.516;13.460;2023-05-23T14:19:11;39.05;;;27.17;;
32501;SDS011;18952;52.516;13.460;2023-05-23T14:21:40;30.40;;;25.83;;
32501;SDS011;18952;52.516;13.460;2023-05-23T14:24:12;34.95;;;27.42;;
32501;SDS011;18952;52.516;13.460;2023-05-23T14:26:42;37.28;;;28.85;;
32501;SDS011;18952;52.516;13.460;2023-05-23T14:29:13;31.17;;;27.02;;
32501;SDS011;18952;52.516;13.460;2023-05-23T14:31:42;31.60;;;27.48;;
32501;SDS011;18952;52.516;13.460;2023-05-23T14:34:09;34.40;;;28.25;;
32501;SDS011;18952;52.516;13.460;2023-05-23T14:36:36;35.20;;;27.77;;
32501;SDS011;18952;52.516;13.460;2023-05-23T14:39:03;31.23;;;25.40;;
32501;SDS011;18952;52.516;13.460;2023-05-23T14:41:30;32.78;;;26.10;;
32501;SDS011;18952;52.516;13.460;2023-05-23T14:43:57;30.98;;;25.20;;
32501;SDS011;18952;52.516;13.460;2023-05-23T14:46:24;33.20;;;25.70;;
32501;SDS011;18952;52.516;13.460;2023-05-23T14:48:50;33.70;;;25.17;;
32501;SDS011;18952;52.516;13.460;2023-05-23T14:51:18;29.40;;;24.83;;
32501;SDS011;18952;52.516;13.460;2023-05-23T14:54:05;31.65;;;24.08;;
32501;SDS011;18952;52.516;13.460;2023-05-23T14:56:32;32.17;;;24.67;;
32501;SDS011;18952;52.516;13.460;2023-05-23T14:58:59;29.25;;;23.38;;
32501;SDS011;18952;52.516;13.460;2023-05-23T15:01:27;28.85;;;23.40;;
32501;SDS011;18952;52.516;13.460;2023-05-23T15:03:54;29.55;;;23.40;;
32501;SDS011;18952;52.516;13.460;2023-05-23T15:06:21;28.38;;;22.30;;
32501;SDS011;18952;52.516;13.460;2023-05-23T15:08:50;27.73;;;22.08;;
32501;SDS011;18952;52.516;13.460;2023-05-23T15:11:17;25.48;;;17.23;;